Time;durP1;ratioP1;P1;durP2;ratioP2;P2;SDS_P1;SDS_P2;PMS_P1;PMS_P2;Temp;Humidity;BMP_temperature;BMP_pressure;BME280_temperature;BME280_humidity;BME280_pressure;Samples;Min_cycle;Max_cycle;Signal;HPM_P1;HPM_P2
2019/12/03 00:02:46;;;;;;;4.11;3.71;;;;;;;20.22;41.47;101776.94;;;;-54
2019/12/03 00:05:46;;;;;;;4.35;3.95;;;;;;;20.19;41.45;101774.69;;;;-55
2019/12/03 00:08:46;;;;;;;4.19;3.79;;;;;;;20.17;41.47;101778.81;;;;-54
2019/12/03 00:11:45;;;;;;;5.43;3.93;;;;;;;20.15;41.41;101779.47;;;;-53
2019/12/03 00:14:45;;;;;;;4.25;3.85;;;;;;;20.15;41.43;101786.56;;;;-53
2019/12/03 00:17:46;;;;;;;4.29;3.89;;;;;;;20.14;41.52;101789.34;;;;-53
2019/12/03 00:20:46;;;;;;;4.27;3.87;;;;;;;20.11;41.49;101786.08;;;;-53
2019/12/03 00:23:46;;;;;;;4.11;3.73;;;;;;;20.09;41.46;101795.70;;;;-54
2019/12/03 00:26:47;;;;;;;4.29;3.89;;;;;;;20.09;41.51;101805.97;;;;-53
2019/12/03 00:29:52;;;;;;;4.24;3.84;;;;;;;20.06;41.46;101796.66;;;;-53
2019/12/03 00:32:54;;;;;;;4.35;3.93;;;;;;;20.04;41.47;101803.36;;;;-54
2019/12/03 00:35:45;;;;;;;4.60;4.05;;;;;;;20.03;41.55;101811.56;;;;-54
2019/12/03 00:38:46;;;;;;;4.29;3.89;;;;;;;20.01;41.61;101814.81;;;;-54
2019/12/03 00:41:46;;;;;;;4.83;4.02;;;;;;;20.00;41.53;101808.63;;;;-54
2019/12/03 00:44:45;;;;;;;4.25;3.85;;;;;;;19.99;41.54;101809.69;;;;-53
2019/12/03 00:47:45;;;;;;;4.21;3.81;;;;;;;19.98;41.48;101802.89;;;;-54
2019/12/03 00:50:45;;;;;;;4.50;4.10;;;;;;;19.96;41.55;101808.68;;;;-53
2019/12/03 00:53:46;;;;;;;4.41;4.01;;;;;;;19.95;41.60;101808.78;;;;-54
2019/12/03 00:57:27;;;;;;;4.46;4.06;;;;;;;19.93;41.55;101806.26;;;;-54
2019/12/03 01:00:04;;;;;;;4.33;3.93;;;;;;;19.92;41.58;101805.34;;;;-54
2019/12/03 01:05:50;;;;;;;4.46;3.93;;;;;;;19.89;41.69;101809.47;;;;-53
2019/12/03 01:08:45;;;;;;;4.45;4.05;;;;;;;19.88;41.58;101810.50;;;;-56
2019/12/03 01:11:46;;;;;;;4.27;3.87;;;;;;;19.86;41.54;101804.62;;;;-55
2019/12/03 01:14:46;;;;;;;4.20;3.80;;;;;;;19.84;41.62;101804.50;;;;-54
2019/12/03 01:17:46;;;;;;;4.15;3.75;;;;;;;19.84;41.63;101808.41;;;;-54
2019/12/03 01:20:45;;;;;;;4.22;3.82;;;;;;;19.83;41.61;101815.55;;;;-54
2019/12/03 01:23:45;;;;;;;4.69;4.08;;;;;;;19.82;41.55;101821.02;;;;-54
2019/12/03 01:26:45;;;;;;;4.63;4.19;;;;;;;19.81;41.67;101816.59;;;;-55
2019/12/03 01:29:46;;;;;;;4.41;4.01;;;;;;;19.78;41.63;101816.34;;;;-53
2019/12/03 01:32:46;;;;;;;4.40;4.00;;;;;;;19.78;41.63;101822.77;;;;-53
2019/12/03 01:35:46;;;;;;;4.55;4.13;;;;;;;19.76;41.50;101818.56;;;;-56
2019/12/03 01:38:45;;;;;;;4.55;4.12;;;;;;;19.76;41.66;101829.28;;;;-56
2019/12/03 01:41:45;;;;;;;4.30;3.90;;;;;;;19.75;41.64;101827.03;;;;-54
2019/12/03 01:44:45;;;;;;;4.27;3.87;;;;;;;19.74;41.65;101828.03;;;;-55
2019/12/03 01:47:45;;;;;;;4.20;3.80;;;;;;;19.72;41.68;101825.44;;;;-55
2019/12/03 01:50:46;;;;;;;4.49;4.07;;;;;;;19.71;41.62;101820.68;;;;-56
2019/12/03 01:53:46;;;;;;;4.72;4.13;;;;;;;19.70;41.68;101823.47;;;;-55
2019/12/03 01:56:45;;;;;;;4.21;3.79;;;;;;;19.69;41.64;101814.18;;;;-53
2019/12/03 01:59:45;;;;;;;4.47;4.07;;;;;;;19.68;41.66;101828.38;;;;-54
2019/12/03 02:02:45;;;;;;;4.47;4.07;;;;;;;19.67;41.67;101845.44;;;;-54
2019/12/03 02:05:46;;;;;;;4.61;3.93;;;;;;;19.66;41.68;101838.91;;;;-55
2019/12/03 02:08:46;;;;;;;4.36;3.96;;;;;;;19.65;41.65;101844.54;;;;-53
2019/12/03 02:11:46;;;;;;;4.74;4.10;;;;;;;19.63;41.59;101833.73;;;;-55
2019/12/03 02:15:06;;;;;;;4.25;3.85;;;;;;;19.62;41.71;101822.27;;;;-54
2019/12/03 02:17:59;;;;;;;4.06;3.66;;;;;;;19.62;41.73;101822.61;;;;-55
2019/12/03 02:20:48;;;;;;;4.33;3.93;;;;;;;19.60;41.65;101829.01;;;;-53
2019/12/03 02:23:59;;;;;;;4.19;3.79;;;;;;;19.58;41.66;101837.15;;;;-53
2019/12/03 02:26:46;;;;;;;4.37;3.97;;;;;;;19.60;41.62;101841.62;;;;-53
2019/12/03 02:29:46;;;;;;;4.20;3.83;;;;;;;19.57;41.68;101834.50;;;;-53
2019/12/03 02:32:45;;;;;;;4.20;3.80;;;;;;;19.57;41.62;101832.66;;;;-53
2019/12/03 02:35:45;;;;;;;4.16;3.76;;;;;;;19.56;41.58;101822.75;;;;-54
2019/12/03 02:38:45;;;;;;;4.27;3.87;;;;;;;19.55;41.67;101811.59;;;;-54
2019/12/03 02:41:45;;;;;;;4.21;3.81;;;;;;;19.54;41.63;101798.49;;;;-56
2019/12/03 02:44:46;;;;;;;4.44;4.04;;;;;;;19.53;41.66;101799.70;;;;-53
2019/12/03 02:47:45;;;;;;;4.27;3.87;;;;;;;19.51;41.67;101818.36;;;;-53
2019/12/03 02:50:45;;;;;;;4.01;3.61;;;;;;;19.51;41.71;101807.28;;;;-54
2019/12/03 02:53:45;;;;;;;4.33;3.95;;;;;;;19.50;41.61;101790.52;;;;-53
2019/12/03 02:56:45;;;;;;;4.25;3.85;;;;;;;19.49;41.70;101788.23;;;;-54
2019/12/03 02:59:45;;;;;;;4.05;3.65;;;;;;;19.49;41.66;101780.12;;;;-55
2019/12/03 03:02:45;;;;;;;4.47;3.99;;;;;;;19.47;41.69;101777.21;;;;-53
2019/12/03 03:05:46;;;;;;;4.23;3.83;;;;;;;19.47;41.65;101779.71;;;;-53
2019/12/03 03:11:50;;;;;;;4.11;3.71;;;;;;;19.45;41.70;101800.13;;;;-54
2019/12/03 03:14:45;;;;;;;3.96;3.66;;;;;;;19.44;41.74;101798.30;;;;-53
2019/12/03 03:17:46;;;;;;;4.32;3.92;;;;;;;19.43;41.77;101797.38;;;;-54
2019/12/03 03:20:45;;;;;;;4.24;3.84;;;;;;;19.41;41.73;101796.63;;;;-54
2019/12/03 03:23:46;;;;;;;4.29;3.89;;;;;;;19.41;41.77;101791.77;;;;-53
2019/12/03 03:26:45;;;;;;;4.39;3.99;;;;;;;19.40;41.76;101799.75;;;;-54
2019/12/03 03:29:45;;;;;;;4.07;3.67;;;;;;;19.39;41.67;101791.98;;;;-54
2019/12/03 03:32:51;;;;;;;4.26;3.86;;;;;;;19.39;41.74;101797.45;;;;-53
2019/12/03 03:35:45;;;;;;;3.93;3.63;;;;;;;19.37;41.74;101795.25;;;;-54
2019/12/03 03:38:45;;;;;;;4.34;3.94;;;;;;;19.36;41.71;101801.44;;;;-53
2019/12/03 03:41:45;;;;;;;4.19;3.79;;;;;;;19.35;41.83;101804.83;;;;-54
2019/12/03 03:44:45;;;;;;;4.17;3.77;;;;;;;19.34;41.74;101801.24;;;;-53
2019/12/03 03:47:45;;;;;;;4.18;3.79;;;;;;;19.34;41.79;101811.78;;;;-55
2019/12/03 03:50:45;;;;;;;4.17;3.77;;;;;;;19.32;41.71;101797.20;;;;-53
2019/12/03 03:53:46;;;;;;;4.20;3.80;;;;;;;19.32;41.76;101796.74;;;;-56
2019/12/03 03:56:46;;;;;;;4.12;3.72;;;;;;;19.31;41.69;101798.77;;;;-54
2019/12/03 03:59:51;;;;;;;4.34;3.92;;;;;;;19.30;41.75;101807.28;;;;-53
2019/12/03 04:02:53;;;;;;;4.07;3.67;;;;;;;19.30;41.80;101803.44;;;;-53
2019/12/03 04:05:45;;;;;;;4.26;3.86;;;;;;;19.30;41.86;101789.42;;;;-53
2019/12/03 04:08:45;;;;;;;4.02;3.62;;;;;;;19.32;41.90;101797.74;;;;-55
2019/12/03 04:11:45;;;;;;;3.95;3.57;;;;;;;19.33;41.82;101791.97;;;;-55
2019/12/03 04:14:45;;;;;;;4.17;3.77;;;;;;;19.36;41.67;101791.11;;;;-56
2019/12/03 04:17:46;;;;;;;4.25;3.81;;;;;;;19.37;41.74;101793.84;;;;-54
2019/12/03 04:20:45;;;;;;;3.90;3.50;;;;;;;19.39;42.14;101793.53;;;;-54
2019/12/03 04:23:45;;;;;;;3.87;3.44;;;;;;;19.41;42.29;101791.09;;;;-54
2019/12/03 04:26:45;;;;;;;3.77;3.41;;;;;;;19.44;42.33;101789.91;;;;-54
2019/12/03 04:29:46;;;;;;;3.91;3.50;;;;;;;19.48;42.29;101787.15;;;;-54
2019/12/03 04:32:46;;;;;;;3.94;3.55;;;;;;;19.52;42.29;101783.95;;;;-54
2019/12/03 04:35:46;;;;;;;4.03;3.43;;;;;;;19.56;42.22;101784.83;;;;-54
2019/12/03 04:38:45;;;;;;;3.69;3.39;;;;;;;19.59;42.23;101786.71;;;;-56
2019/12/03 04:41:45;;;;;;;3.72;3.42;;;;;;;19.63;42.21;101788.31;;;;-53
2019/12/03 04:44:56;;;;;;;3.70;3.39;;;;;;;19.67;42.22;101787.45;;;;-53
2019/12/03 04:47:49;;;;;;;3.68;3.38;;;;;;;19.71;42.18;101784.31;;;;-54
2019/12/03 04:50:51;;;;;;;3.82;3.47;;;;;;;19.74;42.13;101783.05;;;;-53
2019/12/03 04:53:45;;;;;;;3.90;3.56;;;;;;;19.77;42.20;101775.38;;;;-52
2019/12/03 04:57:23;;;;;;;3.76;3.46;;;;;;;19.81;42.17;101784.69;;;;-54
2019/12/03 04:59:45;;;;;;;3.78;3.39;;;;;;;19.85;42.27;101793.11;;;;-53
2019/12/03 05:02:45;;;;;;;3.61;3.31;;;;;;;19.88;42.24;101791.22;;;;-53
2019/12/03 05:05:45;;;;;;;3.63;3.33;;;;;;;19.92;42.18;101793.95;;;;-53
2019/12/03 05:08:45;;;;;;;4.45;3.32;;;;;;;19.93;42.24;101785.02;;;;-53
2019/12/03 05:11:46;;;;;;;3.55;3.25;;;;;;;19.96;42.22;101789.56;;;;-54
2019/12/03 05:14:45;;;;;;;3.60;3.30;;;;;;;19.99;42.22;101798.75;;;;-53
2019/12/03 05:17:45;;;;;;;3.81;3.44;;;;;;;20.03;42.17;101796.88;;;;-53
2019/12/03 05:20:45;;;;;;;3.69;3.39;;;;;;;20.06;42.17;101809.41;;;;-54
2019/12/03 05:23:45;;;;;;;3.75;3.45;;;;;;;20.08;42.24;101808.94;;;;-53
2019/12/03 05:26:48;;;;;;;3.61;3.31;;;;;;;20.11;42.17;101813.65;;;;-53
2019/12/03 05:29:45;;;;;;;3.30;3.00;;;;;;;20.13;42.17;101810.20;;;;-53
2019/12/03 05:32:45;;;;;;;3.37;3.07;;;;;;;20.15;42.21;101818.54;;;;-53
2019/12/03 05:35:45;;;;;;;3.47;3.17;;;;;;;20.19;42.17;101816.29;;;;-53
2019/12/03 05:38:45;;;;;;;3.51;3.21;;;;;;;20.22;42.01;101822.56;;;;-54
2019/12/03 05:41:45;;;;;;;3.43;3.09;;;;;;;20.24;42.17;101822.15;;;;-53
2019/12/03 05:44:46;;;;;;;3.66;3.36;;;;;;;20.26;42.11;101820.77;;;;-53
2019/12/03 05:47:51;;;;;;;3.65;3.31;;;;;;;20.31;41.92;101829.02;;;;-53
2019/12/03 05:50:45;;;;;;;5.34;3.18;;;;;;;20.34;41.87;101834.41;;;;-52
2019/12/03 05:53:45;;;;;;;4.29;3.45;;;;;;;20.33;42.00;101838.70;;;;-54
2019/12/03 05:56:53;;;;;;;3.64;3.17;;;;;;;20.34;42.02;101838.00;;;;-52
2019/12/03 05:59:45;;;;;;;5.15;3.39;;;;;;;20.36;41.94;101844.17;;;;-55
2019/12/03 06:02:45;;;;;;;3.45;3.15;;;;;;;20.39;42.03;101847.20;;;;-53
2019/12/03 06:05:45;;;;;;;3.84;3.42;;;;;;;20.39;42.00;101848.66;;;;-53
2019/12/03 06:08:45;;;;;;;3.55;2.86;;;;;;;20.41;42.02;101843.80;;;;-52
2019/12/03 06:11:45;;;;;;;5.59;3.13;;;;;;;20.42;42.02;101841.02;;;;-52
2019/12/03 06:14:45;;;;;;;3.66;3.18;;;;;;;20.44;41.93;101835.09;;;;-52
2019/12/03 06:17:45;;;;;;;3.80;3.29;;;;;;;20.46;41.99;101838.58;;;;-53
2019/12/03 06:20:45;;;;;;;6.04;3.29;;;;;;;20.50;41.98;101835.98;;;;-57
2019/12/03 06:23:46;;;;;;;4.74;3.37;;;;;;;20.53;42.18;101841.16;;;;-58
2019/12/03 06:26:45;;;;;;;5.39;3.11;;;;;;;20.55;42.63;101843.07;;;;-52
2019/12/03 06:29:45;;;;;;;4.17;3.19;;;;;;;20.57;42.59;101839.18;;;;-54
2019/12/03 06:32:45;;;;;;;3.93;3.28;;;;;;;20.61;42.63;101852.17;;;;-57
2019/12/03 06:35:45;;;;;;;3.27;2.97;;;;;;;20.63;42.67;101856.16;;;;-59
2019/12/03 06:38:45;;;;;;;6.11;3.13;;;;;;;20.66;42.62;101848.63;;;;-57
2019/12/03 06:41:45;;;;;;;3.39;3.09;;;;;;;20.69;42.64;101861.58;;;;-57
2019/12/03 06:44:45;;;;;;;3.35;2.93;;;;;;;20.72;42.50;101859.36;;;;-59
2019/12/03 06:47:52;;;;;;;4.34;3.13;;;;;;;20.76;42.65;101860.05;;;;-56
2019/12/03 06:51:01;;;;;;;4.02;3.07;;;;;;;20.78;42.39;101863.70;;;;-59
2019/12/03 06:53:45;;;;;;;4.07;3.03;;;;;;;20.80;42.60;101858.07;;;;-55
2019/12/03 06:56:45;;;;;;;3.29;2.99;;;;;;;20.82;42.54;101867.30;;;;-58
2019/12/03 06:59:46;;;;;;;4.35;3.14;;;;;;;20.84;42.56;101875.97;;;;-56
2019/12/03 07:02:45;;;;;;;4.17;3.33;;;;;;;20.87;42.62;101877.63;;;;-52
2019/12/03 07:05:45;;;;;;;3.53;3.03;;;;;;;20.91;42.60;101873.33;;;;-56
2019/12/03 07:08:45;;;;;;;3.21;2.91;;;;;;;20.91;42.16;101872.55;;;;-57
2019/12/03 07:11:45;;;;;;;3.83;3.45;;;;;;;20.89;40.79;101874.37;;;;-57
2019/12/03 07:14:51;;;;;;;3.93;3.21;;;;;;;20.87;41.41;101880.08;;;;-56
2019/12/03 07:17:52;;;;;;;4.02;3.26;;;;;;;20.88;41.70;101890.00;;;;-57
2019/12/03 07:20:45;;;;;;;4.23;3.35;;;;;;;20.86;41.81;101891.88;;;;-57
2019/12/03 07:23:45;;;;;;;3.59;3.00;;;;;;;20.86;41.87;101901.67;;;;-56
2019/12/03 07:26:45;;;;;;;4.16;3.19;;;;;;;20.87;41.87;101904.05;;;;-56
2019/12/03 07:29:45;;;;;;;4.15;3.27;;;;;;;20.87;41.82;101899.97;;;;-57
2019/12/03 07:32:45;;;;;;;4.69;3.25;;;;;;;20.87;41.89;101901.31;;;;-57
2019/12/03 07:35:45;;;;;;;3.24;2.94;;;;;;;20.87;41.88;101901.91;;;;-57
2019/12/03 07:38:46;;;;;;;5.91;3.25;;;;;;;20.88;41.86;101900.02;;;;-57
2019/12/03 07:41:45;;;;;;;3.41;2.99;;;;;;;20.88;41.83;101893.02;;;;-57
2019/12/03 07:44:45;;;;;;;4.50;2.93;;;;;;;20.89;41.79;101891.68;;;;-57
2019/12/03 07:47:47;;;;;;;3.25;2.87;;;;;;;20.88;41.88;101894.82;;;;-57
2019/12/03 07:50:46;;;;;;;3.33;3.02;;;;;;;20.89;41.84;101891.28;;;;-56
2019/12/03 07:53:46;;;;;;;3.36;2.86;;;;;;;20.90;41.81;101890.00;;;;-56
2019/12/03 07:56:45;;;;;;;5.16;3.13;;;;;;;20.90;41.83;101888.06;;;;-56
2019/12/03 07:59:45;;;;;;;3.17;2.87;;;;;;;20.91;41.79;101881.57;;;;-56
2019/12/03 08:02:45;;;;;;;3.38;3.03;;;;;;;20.91;41.68;101876.30;;;;-56
2019/12/03 08:05:45;;;;;;;3.97;2.80;;;;;;;20.92;41.80;101876.93;;;;-57
2019/12/03 08:08:45;;;;;;;3.98;3.01;;;;;;;20.93;41.81;101871.28;;;;-57
2019/12/03 08:11:45;;;;;;;3.35;2.99;;;;;;;20.93;41.81;101870.70;;;;-57
2019/12/03 08:14:45;;;;;;;3.43;3.13;;;;;;;20.94;41.65;101879.00;;;;-48
2019/12/03 08:17:45;;;;;;;4.35;3.09;;;;;;;20.98;41.87;101880.99;;;;-51
2019/12/03 08:22:48;;;;;;;4.96;3.01;;;;;;;21.01;41.85;101876.36;;;;-47
2019/12/03 08:24:55;;;;;;;3.67;3.30;;;;;;;21.05;41.72;101880.47;;;;-52
2019/12/03 08:27:45;;;;;;;5.85;3.31;;;;;;;21.08;41.79;101880.20;;;;-46
2019/12/03 08:30:45;;;;;;;4.27;2.90;;;;;;;21.09;41.82;101870.80;;;;-54
2019/12/03 08:33:45;;;;;;;6.61;3.13;;;;;;;21.12;41.94;101871.59;;;;-53
2019/12/03 08:36:45;;;;;;;5.21;3.07;;;;;;;21.17;42.03;101867.25;;;;-54
2019/12/03 08:39:45;;;;;;;5.27;3.17;;;;;;;21.16;41.82;101871.23;;;;-46
2019/12/03 08:42:45;;;;;;;3.56;2.91;;;;;;;21.18;41.88;101871.95;;;;-46
2019/12/03 08:45:45;;;;;;;5.04;2.94;;;;;;;21.20;42.04;101876.02;;;;-49
2019/12/03 08:48:46;;;;;;;3.47;2.80;;;;;;;21.21;41.90;101875.46;;;;-51
2019/12/03 08:51:45;;;;;;;4.19;3.07;;;;;;;21.22;42.00;101878.82;;;;-51
2019/12/03 08:54:47;;;;;;;3.21;2.88;;;;;;;21.25;42.02;101882.59;;;;-51
2019/12/03 08:57:45;;;;;;;3.30;2.79;;;;;;;21.27;42.24;101882.38;;;;-50
2019/12/03 09:00:45;;;;;;;3.47;3.01;;;;;;;21.29;42.08;101883.16;;;;-49
2019/12/03 09:03:45;;;;;;;4.05;3.11;;;;;;;21.28;42.02;101883.22;;;;-49
2019/12/03 09:06:45;;;;;;;3.85;3.19;;;;;;;21.30;41.87;101891.61;;;;-50
2019/12/03 09:09:45;;;;;;;4.39;2.89;;;;;;;21.30;41.89;101884.30;;;;-45
2019/12/03 09:12:45;;;;;;;3.43;3.13;;;;;;;21.31;41.89;101883.61;;;;-44
2019/12/03 09:15:45;;;;;;;3.76;2.93;;;;;;;21.32;42.04;101879.81;;;;-48
2019/12/03 09:18:45;;;;;;;5.83;3.81;;;;;;;21.27;40.30;101880.68;;;;-49
2019/12/03 09:21:46;;;;;;;6.49;4.15;;;;;;;21.23;39.98;101884.30;;;;-45
2019/12/03 09:24:49;;;;;;;7.55;3.99;;;;;;;21.24;39.19;101888.24;;;;-44
2019/12/03 09:27:49;;;;;;;6.01;3.83;;;;;;;21.27;40.29;101884.78;;;;-48
2019/12/03 09:30:45;;;;;;;6.17;3.53;;;;;;;21.27;40.58;101886.06;;;;-59
2019/12/03 09:33:45;;;;;;;4.95;3.50;;;;;;;21.30;40.92;101888.38;;;;-48
2019/12/03 09:36:45;;;;;;;5.19;3.47;;;;;;;21.31;40.94;101890.34;;;;-49
2019/12/03 09:39:45;;;;;;;5.91;3.50;;;;;;;21.32;41.05;101894.42;;;;-45
2019/12/03 09:42:45;;;;;;;4.90;3.31;;;;;;;21.35;40.91;101888.67;;;;-45
2019/12/03 09:45:45;;;;;;;5.07;3.52;;;;;;;21.33;40.93;101885.92;;;;-45
2019/12/03 09:48:45;;;;;;;5.07;3.49;;;;;;;21.31;40.93;101883.63;;;;-45
2019/12/03 09:51:45;;;;;;;4.39;3.16;;;;;;;21.31;40.86;101878.24;;;;-45
2019/12/03 09:54:45;;;;;;;3.77;3.20;;;;;;;21.29;40.98;101866.70;;;;-45
2019/12/03 09:57:45;;;;;;;3.49;3.01;;;;;;;21.29;40.95;101864.84;;;;-45
2019/12/03 10:00:48;;;;;;;4.40;3.22;;;;;;;21.28;40.93;101866.87;;;;-45
2019/12/03 10:03:46;;;;;;;3.35;3.05;;;;;;;21.27;41.00;101862.82;;;;-45
2019/12/03 10:06:45;;;;;;;3.41;3.11;;;;;;;21.26;40.96;101857.89;;;;-54
2019/12/03 10:09:45;;;;;;;5.77;3.35;;;;;;;21.28;40.90;101853.30;;;;-55
2019/12/03 10:12:45;;;;;;;4.55;3.46;;;;;;;21.28;40.51;101847.54;;;;-53
2019/12/03 10:15:45;;;;;;;4.53;3.75;;;;;;;21.27;39.96;101845.47;;;;-52
2019/12/03 10:18:46;;;;;;;5.31;3.96;;;;;;;21.28;39.95;101845.45;;;;-46
2019/12/03 10:21:45;;;;;;;5.77;3.74;;;;;;;21.27;39.17;101842.03;;;;-50
2019/12/03 10:24:45;;;;;;;5.01;3.81;;;;;;;21.27;38.71;101839.51;;;;-52
2019/12/03 10:27:45;;;;;;;4.36;3.85;;;;;;;21.27;38.76;101836.56;;;;-57
2019/12/03 10:30:45;;;;;;;4.43;3.87;;;;;;;21.29;39.32;101835.50;;;;-50
2019/12/03 10:33:45;;;;;;;4.98;3.59;;;;;;;21.28;39.61;101833.30;;;;-50
2019/12/03 10:36:45;;;;;;;4.70;3.44;;;;;;;21.29;39.97;101831.06;;;;-50
2019/12/03 10:39:45;;;;;;;4.04;3.32;;;;;;;21.28;40.12;101832.80;;;;-50
2019/12/03 10:42:45;;;;;;;4.93;3.30;;;;;;;21.28;40.18;101832.12;;;;-50
2019/12/03 10:45:45;;;;;;;3.67;3.13;;;;;;;21.28;40.33;101822.38;;;;-50
2019/12/03 10:48:45;;;;;;;4.62;3.32;;;;;;;21.28;40.38;101822.77;;;;-50
2019/12/03 10:51:45;;;;;;;3.45;3.13;;;;;;;21.27;40.45;101816.22;;;;-50
2019/12/03 10:54:45;;;;;;;3.47;3.17;;;;;;;21.27;40.48;101818.24;;;;-50
2019/12/03 10:57:45;;;;;;;4.06;3.29;;;;;;;21.26;40.41;101818.06;;;;-50
2019/12/03 11:00:45;;;;;;;3.43;3.13;;;;;;;21.26;40.50;101814.25;;;;-49
2019/12/03 11:03:45;;;;;;;3.55;3.05;;;;;;;21.26;40.62;101812.50;;;;-50
2019/12/03 11:06:45;;;;;;;3.39;3.09;;;;;;;21.26;40.71;101806.85;;;;-50
2019/12/03 11:09:45;;;;;;;3.49;3.15;;;;;;;21.25;40.64;101804.39;;;;-50
2019/12/03 11:12:45;;;;;;;3.77;3.19;;;;;;;21.25;40.72;101800.36;;;;-50
2019/12/03 11:15:45;;;;;;;3.41;3.11;;;;;;;21.25;40.60;101796.98;;;;-50
2019/12/03 11:18:45;;;;;;;3.73;3.29;;;;;;;21.25;40.53;101794.86;;;;-50
2019/12/03 11:21:45;;;;;;;3.61;3.27;;;;;;;21.25;40.40;101795.30;;;;-50
2019/12/03 11:24:45;;;;;;;8.18;3.34;;;;;;;21.23;40.54;101788.03;;;;-45
2019/12/03 11:27:45;;;;;;;5.41;3.76;;;;;;;21.20;39.75;101785.68;;;;-45
2019/12/03 11:30:45;;;;;;;10.29;4.90;;;;;;;21.19;39.55;101775.31;;;;-49
2019/12/03 11:33:45;;;;;;;5.11;4.11;;;;;;;21.22;39.91;101779.00;;;;-51
2019/12/03 11:36:45;;;;;;;7.26;3.91;;;;;;;21.24;40.21;101774.77;;;;-46
2019/12/03 11:39:45;;;;;;;6.91;3.64;;;;;;;21.27;40.42;101772.08;;;;-50
2019/12/03 11:42:45;;;;;;;4.59;3.47;;;;;;;21.28;40.34;101767.27;;;;-52
2019/12/03 11:45:45;;;;;;;5.98;3.57;;;;;;;21.30;40.44;101766.03;;;;-48
2019/12/03 11:48:45;;;;;;;4.39;3.49;;;;;;;21.31;40.60;101763.30;;;;-49
2019/12/03 11:51:45;;;;;;;5.23;3.41;;;;;;;21.35;40.77;101759.50;;;;-46
2019/12/03 11:54:45;;;;;;;3.67;3.24;;;;;;;21.34;40.55;101749.46;;;;-49
2019/12/03 11:57:45;;;;;;;5.79;3.32;;;;;;;21.35;40.75;101742.45;;;;-47
2019/12/03 12:00:45;;;;;;;6.79;3.18;;;;;;;21.37;40.80;101741.56;;;;-50
2019/12/03 12:03:45;;;;;;;3.82;3.20;;;;;;;21.37;40.61;101733.95;;;;-51
2019/12/03 12:06:45;;;;;;;8.51;3.43;;;;;;;21.35;40.69;101733.05;;;;-51
2019/12/03 12:09:46;;;;;;;3.31;3.01;;;;;;;21.35;40.72;101729.98;;;;-51
2019/12/03 12:12:45;;;;;;;4.71;3.07;;;;;;;21.35;40.75;101727.05;;;;-50
2019/12/03 12:15:45;;;;;;;5.91;3.23;;;;;;;21.34;40.80;101717.92;;;;-51
2019/12/03 12:18:45;;;;;;;3.42;3.12;;;;;;;21.34;40.80;101712.38;;;;-51
2019/12/03 12:21:45;;;;;;;3.48;3.08;;;;;;;21.33;40.81;101710.75;;;;-51
2019/12/03 12:24:45;;;;;;;3.64;2.85;;;;;;;21.33;40.84;101705.27;;;;-51
2019/12/03 12:27:45;;;;;;;3.83;2.93;;;;;;;21.33;40.90;101703.58;;;;-51
2019/12/03 12:30:45;;;;;;;3.95;3.00;;;;;;;21.34;40.95;101699.67;;;;-51
2019/12/03 12:33:45;;;;;;;3.63;2.97;;;;;;;21.35;40.84;101697.80;;;;-50
2019/12/03 12:36:45;;;;;;;3.91;2.99;;;;;;;21.35;40.90;101692.59;;;;-51
2019/12/03 12:39:45;;;;;;;3.30;2.86;;;;;;;21.36;40.86;101690.77;;;;-51
2019/12/03 12:42:45;;;;;;;3.95;2.89;;;;;;;21.35;41.04;101690.59;;;;-51
2019/12/03 12:45:45;;;;;;;3.78;2.86;;;;;;;21.36;40.92;101686.41;;;;-51
2019/12/03 12:48:47;;;;;;;4.90;2.76;;;;;;;21.35;40.99;101683.97;;;;-51
2019/12/03 12:51:47;;;;;;;3.33;2.99;;;;;;;21.35;41.02;101678.72;;;;-51
2019/12/03 12:54:45;;;;;;;3.79;2.88;;;;;;;21.35;40.90;101674.78;;;;-51
2019/12/03 12:57:45;;;;;;;2.93;2.61;;;;;;;21.34;41.05;101673.38;;;;-51
2019/12/03 13:00:45;;;;;;;3.16;2.72;;;;;;;21.34;40.83;101681.40;;;;-47
2019/12/03 13:03:45;;;;;;;3.63;2.91;;;;;;;21.37;41.15;101677.26;;;;-46
2019/12/03 13:06:45;;;;;;;4.57;2.75;;;;;;;21.37;41.16;101676.75;;;;-51
2019/12/03 13:09:45;;;;;;;3.64;2.69;;;;;;;21.39;41.30;101674.69;;;;-52
2019/12/03 13:12:45;;;;;;;3.22;2.59;;;;;;;21.38;41.31;101673.17;;;;-52
2019/12/03 13:15:45;;;;;;;4.49;2.69;;;;;;;21.40;41.05;101673.79;;;;-47
2019/12/03 13:18:45;;;;;;;3.49;2.70;;;;;;;21.39;41.07;101671.83;;;;-47
2019/12/03 13:21:45;;;;;;;3.47;2.65;;;;;;;21.37;41.10;101666.67;;;;-48
2019/12/03 13:24:45;;;;;;;2.77;2.55;;;;;;;21.35;41.08;101668.34;;;;-47
2019/12/03 13:27:45;;;;;;;3.37;2.56;;;;;;;21.34;41.18;101665.72;;;;-47
2019/12/03 13:32:09;;;;;;;3.19;2.69;;;;;;;21.34;40.97;101666.99;;;;-47
2019/12/03 13:35:11;;;;;;;2.94;2.53;;;;;;;21.33;41.09;101658.95;;;;-47
2019/12/03 13:37:45;;;;;;;3.01;2.71;;;;;;;21.32;41.19;101654.86;;;;-47
2019/12/03 13:40:45;;;;;;;3.43;2.62;;;;;;;21.31;41.14;101657.37;;;;-47
2019/12/03 13:43:45;;;;;;;3.77;2.79;;;;;;;21.31;41.23;101653.55;;;;-47
2019/12/03 13:46:45;;;;;;;3.22;2.61;;;;;;;21.30;41.22;101645.27;;;;-48
2019/12/03 13:49:45;;;;;;;3.02;2.45;;;;;;;21.30;41.16;101642.19;;;;-47
2019/12/03 13:52:45;;;;;;;2.97;2.55;;;;;;;21.30;41.27;101645.16;;;;-48
2019/12/03 13:55:45;;;;;;;3.44;2.60;;;;;;;21.30;41.30;101645.77;;;;-47
2019/12/03 13:58:45;;;;;;;3.25;2.65;;;;;;;21.30;41.14;101637.48;;;;-47
2019/12/03 14:01:45;;;;;;;2.89;2.48;;;;;;;21.30;41.21;101638.66;;;;-47
2019/12/03 14:04:45;;;;;;;3.23;2.63;;;;;;;21.30;41.21;101639.39;;;;-47
2019/12/03 14:07:45;;;;;;;2.87;2.45;;;;;;;21.31;41.29;101641.12;;;;-47
2019/12/03 14:10:45;;;;;;;3.89;2.59;;;;;;;21.31;41.26;101642.30;;;;-48
2019/12/03 14:13:45;;;;;;;2.62;2.39;;;;;;;21.31;41.35;101639.34;;;;-47
2019/12/03 14:16:45;;;;;;;2.74;2.51;;;;;;;21.30;41.37;101635.19;;;;-48
2019/12/03 14:19:45;;;;;;;2.58;2.38;;;;;;;21.31;41.35;101639.44;;;;-48
2019/12/03 14:22:45;;;;;;;2.40;2.17;;;;;;;21.30;41.34;101636.14;;;;-47
2019/12/03 14:25:57;;;;;;;2.93;2.51;;;;;;;21.31;41.33;101634.52;;;;-48
2019/12/03 14:28:45;;;;;;;2.79;2.28;;;;;;;21.32;41.37;101635.80;;;;-47
2019/12/03 14:31:45;;;;;;;3.43;2.48;;;;;;;21.32;41.37;101639.34;;;;-47
2019/12/03 14:34:45;;;;;;;4.39;2.63;;;;;;;21.32;41.37;101637.66;;;;-47
2019/12/03 14:37:45;;;;;;;2.64;2.36;;;;;;;21.32;41.41;101629.70;;;;-47
2019/12/03 14:40:45;;;;;;;2.47;2.27;;;;;;;21.32;41.37;101625.45;;;;-47
2019/12/03 14:43:45;;;;;;;2.30;2.09;;;;;;;21.32;41.39;101628.85;;;;-47
2019/12/03 14:46:45;;;;;;;2.91;2.35;;;;;;;21.33;41.38;101632.73;;;;-48
2019/12/03 14:49:45;;;;;;;2.57;2.37;;;;;;;21.33;41.37;101633.67;;;;-47
2019/12/03 14:52:45;;;;;;;5.88;2.38;;;;;;;21.36;41.65;101633.23;;;;-52
2019/12/03 14:55:45;;;;;;;2.64;2.41;;;;;;;21.38;42.01;101639.33;;;;-53
2019/12/03 14:58:45;;;;;;;3.07;2.47;;;;;;;21.40;42.08;101642.03;;;;-50
2019/12/03 15:01:45;;;;;;;2.66;2.46;;;;;;;21.41;42.32;101634.92;;;;-52
2019/12/03 15:04:45;;;;;;;2.97;2.30;;;;;;;21.41;42.02;101633.05;;;;-48
2019/12/03 15:07:45;;;;;;;2.75;2.45;;;;;;;21.42;42.08;101631.48;;;;-48
2019/12/03 15:10:45;;;;;;;2.64;2.39;;;;;;;21.45;42.27;101634.34;;;;-54
2019/12/03 15:13:45;;;;;;;2.83;2.39;;;;;;;21.48;42.44;101638.83;;;;-54
2019/12/03 15:16:45;;;;;;;2.51;2.30;;;;;;;21.48;42.68;101641.56;;;;-48
2019/12/03 15:19:45;;;;;;;2.64;2.37;;;;;;;21.50;42.33;101641.84;;;;-52
2019/12/03 15:22:45;;;;;;;4.66;2.35;;;;;;;21.51;42.43;101644.77;;;;-51
2019/12/03 15:25:45;;;;;;;2.40;2.20;;;;;;;21.53;42.98;101646.05;;;;-49
2019/12/03 15:28:45;;;;;;;2.49;2.29;;;;;;;21.52;42.47;101643.94;;;;-49
2019/12/03 15:31:45;;;;;;;2.70;2.41;;;;;;;21.51;42.10;101647.29;;;;-50
2019/12/03 15:34:45;;;;;;;2.65;2.45;;;;;;;21.53;42.40;101649.81;;;;-51
2019/12/03 15:37:45;;;;;;;2.38;2.18;;;;;;;21.53;41.92;101647.19;;;;-51
2019/12/03 15:40:45;;;;;;;2.61;2.27;;;;;;;21.53;42.35;101648.13;;;;-49
2019/12/03 15:43:45;;;;;;;2.55;2.18;;;;;;;21.54;42.38;101653.56;;;;-49
2019/12/03 15:46:45;;;;;;;2.40;2.20;;;;;;;21.54;42.33;101651.05;;;;-49
2019/12/03 15:52:48;;;;;;;5.65;2.64;;;;;;;21.55;42.36;101651.61;;;;-51
2019/12/03 15:55:45;;;;;;;3.17;2.32;;;;;;;21.56;42.30;101652.56;;;;-53
2019/12/03 15:58:45;;;;;;;2.59;2.31;;;;;;;21.58;42.28;101650.58;;;;-46
2019/12/03 16:01:45;;;;;;;3.61;2.19;;;;;;;21.60;42.16;101649.85;;;;-52
2019/12/03 16:04:45;;;;;;;2.80;2.32;;;;;;;21.64;42.62;101651.63;;;;-51
2019/12/03 16:07:45;;;;;;;3.78;2.30;;;;;;;21.65;42.50;101653.94;;;;-55
2019/12/03 16:10:45;;;;;;;5.60;2.56;;;;;;;21.64;41.82;101656.00;;;;-56
2019/12/03 16:13:45;;;;;;;2.47;2.21;;;;;;;21.61;41.70;101651.23;;;;-56
2019/12/03 16:16:45;;;;;;;3.11;2.38;;;;;;;21.62;41.65;101655.17;;;;-52
2019/12/03 16:19:45;;;;;;;4.15;2.62;;;;;;;21.62;41.58;101660.72;;;;-49
2019/12/03 16:22:45;;;;;;;8.31;2.57;;;;;;;21.64;41.72;101656.13;;;;-51
2019/12/03 16:25:46;;;;;;;4.06;2.47;;;;;;;21.65;41.75;101660.77;;;;-49
2019/12/03 16:28:45;;;;;;;2.56;2.33;;;;;;;21.67;41.74;101661.94;;;;-52
2019/12/03 16:31:45;;;;;;;2.87;2.43;;;;;;;21.65;41.46;101665.58;;;;-51
2019/12/03 16:34:45;;;;;;;3.39;2.51;;;;;;;21.68;41.94;101666.31;;;;-48
2019/12/03 16:37:45;;;;;;;5.73;2.78;;;;;;;21.69;41.33;101666.86;;;;-49
2019/12/03 16:40:45;;;;;;;4.43;2.74;;;;;;;21.69;41.09;101668.17;;;;-53
2019/12/03 16:43:45;;;;;;;3.50;2.62;;;;;;;21.70;41.50;101672.02;;;;-50
2019/12/03 16:46:45;;;;;;;3.61;2.49;;;;;;;21.70;41.64;101673.81;;;;-55
2019/12/03 16:49:45;;;;;;;5.05;2.35;;;;;;;21.70;41.63;101673.64;;;;-54
2019/12/03 16:52:45;;;;;;;3.81;2.40;;;;;;;21.71;41.80;101672.25;;;;-52
2019/12/03 16:55:45;;;;;;;3.21;2.48;;;;;;;21.71;41.80;101673.36;;;;-48